• Join FlightAware (Why Join?)
  • Login
  • US Flag 
04:30PM EDT


 

Airport Tracker/Info


-or-


 

Live Flight TrackerFlight Track Log ✈ UCA3596 ✈ 08-Jul-2014 ✈ KEWR - KBGM

Flight Track Log - Related Links

Times and Time Zones

All times are in EDT time to prevent confusion due to time zone crossing. See the UCA3596 flight status page for this flight to view local times or setup timezone preferences in your user account.

Time Position Orientation Groundspeed Altitude Reporting Facility
EDT Latitude Longitude Course Direction KTS MPH feet Rate Location/Type
03:09PM 40.6833 -74.1667 180° South 121 139 400  Level New York TRACON
03:10PM 40.6500 -74.1667 180° South 135 155 1,500 1,260 Climbing New York TRACON
03:11PM 40.6667 -74.2167 294° West 201 231 2,900 1,380 Climbing New York TRACON
03:12PM 40.7167 -74.2500 333° Northwest 199 229 4,300 1,560 Climbing New York TRACON
03:13PM 40.7667 -74.2667 346° North 200 230 6,100 1,560 Climbing New York TRACON
03:14PM 40.8333 -74.3000 339° North 200 230 7,700 1,380 Climbing New York TRACON
03:15PM 40.8833 -74.3167 346° North 204 235 8,900 1,380 Climbing New York TRACON
03:16PM 40.9333 -74.3500 333° Northwest 203 234 10,400 1,320 Climbing New York TRACON
03:17PM 40.9833 -74.3667 346° North 204 235 11,600 960 Climbing New York TRACON
03:17PM 41.0042 -74.3839 328° Northwest 219 252 11,900 180 Climbing New York Center
03:18PM 41.0678 -74.4175 338° Northwest 217 250 11,900  Level New York Center
03:19PM 41.1353 -74.4544 338° Northwest 252 290 11,900  Level New York Center
03:20PM 41.2053 -74.4856 342° North 252 290 11,900 300 Level New York Center
03:21PM 41.2728 -74.5225 338° Northwest 262 302 12,600 960 Climbing New York Center
03:22PM 41.3322 -74.5536 339° North 244 281 13,900 600 Climbing New York Center
03:23PM 41.3936 -74.5875 338° Northwest 234 269 13,900  Level New York Center
03:24PM 41.4394 -74.6508 314° West 234 269 13,900  Level New York Center
03:25PM 41.4744 -74.7247 302° West 239 275 13,900  Level New York Center
03:26PM 41.5136 -74.8019 304° West 247 284 13,900  Level New York Center
03:27PM 41.5444 -74.8731 300° West 247 284 13,900  Level New York Center
03:28PM 41.5853 -74.9533 304° West 263 303 13,900  Level New York Center
03:29PM 41.6325 -75.0339 308° West 263 303 13,900  Level New York Center
03:30PM 41.6819 -75.1008 315° West 257 296 13,900 -720 Level New York Center
03:31PM 41.7336 -75.1683 316° Northwest 257 296 12,500 -1,380 Descending New York Center
03:32PM 41.7989 -75.2058 337° Northwest 271 312 11,200 -1,260 Descending New York Center
03:33PM 41.8700 -75.2525 334° Northwest 276 318 10,000 -1,020 Descending New York Center
03:34PM 41.9497 -75.2886 341° North 276 318 9,200 -780 Descending New York Center
03:35PM 41.9953 -75.3558 312° West 254 292 8,500 -720 Descending New York Center
03:36PM 42.0211 -75.4358 294° West 236 272 7,800 -600 Descending New York Center
03:37PM 42.0433 -75.5072 293° West 236 272 7,300 -540 Descending New York Center
03:38PM 42.0714 -75.5872 295° West 236 272 6,800 -540 Descending New York Center
03:39PM 42.0994 -75.6647 296° West 231 266 6,300 -720 Descending New York Center
03:40PM 42.1256 -75.7394 295° West 236 272 5,400 -1,020 Descending New York Center
03:41PM 42.1578 -75.8119 301° West 236 272 4,400 -840 Descending New York Center
03:42PM 42.1989 -75.8739 312° West 236 272 3,800 -600 Descending New York Center
03:43PM 42.2256 -75.9319 302° West 212 244 3,300 -660 Descending New York Center
03:44PM 42.2525 -75.9817 306° West 186 214 2,600 -660 Descending New York Center
03:45PM 42.2331 -75.9997 215° Southwest 118 136 2,000 2,640 Descending New York Center
03:46PM 42.2253 -76.0297 251° West 118 136 8,000 6,000 Climbing New York Center
03:48PM 42.2084 -75.9796 180° South  Level Estimated
03:55PM 42.2084 -75.9796 180° South  Level Estimated
03:56PM 42.2084 -75.9796 180° South  Level Estimated